Airfield :
LOGIN :

Register | Disclaimer

   EN    FR    IT 

 










Legend :    VFR   Marginal VFR   IFR   Intensive IFR   Very Intensive IFR
Visi :
Ceiling :
>= 8 km
>= 3000ft
5 to 8 km
1000 to 3000 ft
1500m to 5 km
500 to 1000 ft
800 to 1500m
200 to 500 ft
< 800m
< 200 ft
Symbols :   Thunderstorms  Fog  Heavy snow  Heavy precipitations  Wind > 20 kt
SIGMETs :     Misc.  Thunderstorms  Icing  Turbulence  Mountain Waves  Volcanic Ashes






- Airport Elevation : 686 ft
- IATA code : URS


UUOK - Vostochny

CURRENT METAR :
  • 061900Z 03003MPS CAVOK 23/18 Q1009 R12/CLRD65 NOSIG RMK QFE739/0985

EXPIRED METARs :
  • 061830Z 04003MPS CAVOK 24/18 Q1009 R12/CLRD65 NOSIG RMK QFE739/0985
  • 061800Z 04003MPS CAVOK 24/19 Q1009 R12/CLRD65 NOSIG RMK QFE739/0985
  • 061730Z 04003MPS CAVOK 26/18 Q1008 R12/CLRD65 NOSIG RMK QFE738/0985
  • 061700Z 03004MPS CAVOK 27/18 Q1008 R12/CLRD65 NOSIG RMK QFE738/0985
  • 061630Z 06003MPS 030V100 CAVOK 28/18 Q1009 R30/CLRD65 NOSIG RMK QFE738/0984

TAF TAF UUOK
Valid from the 06 at 18:00 until the 07 at 03:00 UTC


061700Z 0618/0703 04003MPS CAVOK



MET'MAP, your aeronautical weather chart ! - Copyright ORBIFLY December 2007 - Disclaimer

ORBIFLY MET'MAP TEAM :

Programming & Development : Alexandra Zaïnal
Concept & original design : Baudouin d'Aumeries
Assistance for programming : Marc-Olivier Méhu
Technical & hardware support : Manuel Goepfert

Contact : metmap@orbifly.com




SOURCES & CREDITS :

   NOAA